createdAt,value
2023-03-05T00:01:09.950Z,36.55
2023-03-05T00:06:08.962Z,33.10
2023-03-05T00:11:17.284Z,34.90
2023-03-05T00:16:24.903Z,30.27
2023-03-05T00:21:25.794Z,34.80
2023-03-05T00:26:21.931Z,36.10
2023-03-05T00:31:19.747Z,34.25
2023-03-05T00:36:17.944Z,33.80
2023-03-05T00:41:11.969Z,35.63
2023-03-05T00:46:08.954Z,36.75
2023-03-05T00:51:10.496Z,37.92
2023-03-05T00:56:06.473Z,36.85
2023-03-05T01:01:12.822Z,40.75
2023-03-05T01:06:17.683Z,38.60
2023-03-05T01:11:16.397Z,35.65
2023-03-05T01:16:09.947Z,35.60
2023-03-05T01:21:21.509Z,37.08
2023-03-05T01:26:17.485Z,35.33
2023-03-05T01:31:15.486Z,38.10
2023-03-05T01:36:13.543Z,37.30
2023-03-05T01:41:34.549Z,35.85
2023-03-05T01:46:32.505Z,40.95
2023-03-05T01:51:32.118Z,37.72
2023-03-05T01:56:30.932Z,43.10
2023-03-05T02:01:24.766Z,39.38
2023-03-05T02:06:23.730Z,34.53
2023-03-05T02:11:21.985Z,34.42
2023-03-05T02:21:28.147Z,46.67
2023-03-05T02:26:21.763Z,41.47
2023-03-05T02:31:20.049Z,42.47
2023-03-05T02:36:23.846Z,43.15
2023-03-05T02:41:17.646Z,44.65
2023-03-05T02:46:13.270Z,38.70
2023-03-05T02:51:08.673Z,43.95
2023-03-05T02:56:03.627Z,42.45
2023-03-05T03:01:00.265Z,39.67
2023-03-05T03:05:53.615Z,38.55
2023-03-05T03:10:46.915Z,41.03
2023-03-05T03:15:45.209Z,41.17
2023-03-05T03:20:39.323Z,43.03
2023-03-05T03:25:32.906Z,42.45
2023-03-05T03:30:28.459Z,46.67
2023-03-05T03:35:23.226Z,39.97
2023-03-05T03:40:16.605Z,45.65
2023-03-05T03:45:13.971Z,52.65
2023-03-05T03:50:13.451Z,41.63
2023-03-05T03:55:12.216Z,42.30
2023-03-05T04:00:09.295Z,43.57
2023-03-05T04:05:09.127Z,42.72
2023-03-05T04:10:02.534Z,43.40
2023-03-05T04:14:59.501Z,42.17
2023-03-05T04:19:58.766Z,41.10
2023-03-05T04:24:52.164Z,40.85
2023-03-05T04:29:45.804Z,46.43
2023-03-05T04:34:42.990Z,43.70
2023-03-05T04:39:39.333Z,43.08
2023-03-05T04:44:32.826Z,47.70
2023-03-05T04:49:26.353Z,43.27
2023-03-05T04:54:21.209Z,50.13
2023-03-05T04:59:16.880Z,45.77
2023-03-05T05:04:10.430Z,49.37
2023-03-05T05:09:04.055Z,50.50
2023-03-05T05:14:04.546Z,45.43
2023-03-05T05:19:00.003Z,49.83
2023-03-05T05:23:55.451Z,46.17
2023-03-05T05:29:08.595Z,45.50
2023-03-05T05:34:02.122Z,42.00
2023-03-05T05:39:06.169Z,42.70
2023-03-05T05:44:03.684Z,45.90
2023-03-05T05:48:57.113Z,46.27
2023-03-05T05:53:52.987Z,51.53
2023-03-05T05:58:49.347Z,47.87
2023-03-05T06:03:44.545Z,41.47
2023-03-05T06:08:37.917Z,45.20
2023-03-05T06:13:34.046Z,40.43
2023-03-05T06:18:29.863Z,40.65
2023-03-05T06:23:27.337Z,41.58
2023-03-05T06:28:21.845Z,38.67
2023-03-05T06:33:15.406Z,40.55
2023-03-05T06:38:09.462Z,41.03
2023-03-05T06:43:04.210Z,39.33
2023-03-05T06:47:57.365Z,37.20
2023-03-05T06:52:51.061Z,40.13
2023-03-05T06:57:44.157Z,38.50
2023-03-05T07:02:40.171Z,39.95
2023-03-05T07:07:34.169Z,39.33
2023-03-05T07:12:27.652Z,49.33
2023-03-05T07:17:20.806Z,44.13
2023-03-05T07:22:16.380Z,42.25
2023-03-05T07:27:09.466Z,42.22
2023-03-05T07:32:02.693Z,45.25
2023-03-05T07:36:55.913Z,43.33
2023-03-05T07:41:51.796Z,41.47
2023-03-05T07:46:53.271Z,38.08
2023-03-05T07:51:46.386Z,43.53
2023-03-05T07:56:39.516Z,47.05
2023-03-05T08:01:34.333Z,38.28
2023-03-05T08:06:27.505Z,39.75
2023-03-05T08:11:20.780Z,40.95
2023-03-05T08:16:16.352Z,46.65
2023-03-05T08:21:19.310Z,44.38
2023-03-05T08:26:14.533Z,45.85
2023-03-05T08:31:10.797Z,43.15
2023-03-05T08:36:04.151Z,41.60
2023-03-05T08:40:58.758Z,47.05
2023-03-05T08:45:53.720Z,38.95
2023-03-05T08:50:47.291Z,39.30
2023-03-05T08:55:40.733Z,44.90
2023-03-05T09:00:35.947Z,42.60
2023-03-05T09:05:29.236Z,42.08
2023-03-05T09:10:22.547Z,43.63
2023-03-05T09:15:15.988Z,44.17
2023-03-05T09:20:14.624Z,41.00
2023-03-05T09:25:09.226Z,44.38
2023-03-05T09:30:02.633Z,43.38
2023-03-05T09:34:55.862Z,37.47
2023-03-05T09:39:50.445Z,40.80
2023-03-05T09:44:52.747Z,37.50
2023-03-05T09:49:56.574Z,39.53
2023-03-05T09:54:55.777Z,39.83
2023-03-05T09:59:53.038Z,37.60
2023-03-05T10:04:52.118Z,43.78
2023-03-05T10:09:48.143Z,36.53
2023-03-05T10:14:43.287Z,35.92
2023-03-05T10:19:51.952Z,38.47
2023-03-05T10:24:57.739Z,39.05
2023-03-05T10:30:07.459Z,35.35
2023-03-05T10:35:15.635Z,36.73
2023-03-05T10:40:20.121Z,37.78
2023-03-05T10:45:18.719Z,37.13
2023-03-05T10:50:19.087Z,38.85
2023-03-05T10:55:17.845Z,39.83
2023-03-05T11:00:21.459Z,38.15
2023-03-05T11:05:40.245Z,39.92
2023-03-05T11:10:34.082Z,36.65
2023-03-05T11:15:32.226Z,38.75
2023-03-05T11:20:34.050Z,41.63
2023-03-05T11:25:27.368Z,40.20
2023-03-05T11:30:22.491Z,38.45
2023-03-05T11:35:32.889Z,37.08
2023-03-05T11:40:29.157Z,35.15
2023-03-05T11:45:26.224Z,36.00
2023-03-05T11:50:24.166Z,34.80
2023-03-05T11:55:20.657Z,33.08
2023-03-05T12:00:19.115Z,37.40
2023-03-05T12:05:16.341Z,40.55
2023-03-05T12:10:17.561Z,34.80
2023-03-05T12:15:35.043Z,36.17
2023-03-05T12:20:40.467Z,36.08
2023-03-05T12:25:35.286Z,34.33
2023-03-05T12:31:00.979Z,50.40
2023-03-05T12:35:54.402Z,38.47
2023-03-05T12:40:47.773Z,38.00
2023-03-05T12:45:43.842Z,49.15
2023-03-05T12:50:54.919Z,36.67
2023-03-05T12:55:57.826Z,36.28
2023-03-05T13:00:56.530Z,45.97
2023-03-05T13:05:52.156Z,34.30
2023-03-05T13:10:54.097Z,31.33
2023-03-05T13:15:54.876Z,36.72
2023-03-05T13:20:52.282Z,34.05
2023-03-05T13:25:46.667Z,32.70
2023-03-05T13:30:39.907Z,33.08
2023-03-05T13:35:35.211Z,31.45
2023-03-05T13:40:34.076Z,32.63
2023-03-05T13:45:30.163Z,36.30
2023-03-05T13:50:27.218Z,39.28
2023-03-05T13:55:28.688Z,38.22
2023-03-05T14:00:31.603Z,36.58
2023-03-05T14:05:26.374Z,37.10
2023-03-05T14:10:36.053Z,39.38
2023-03-05T14:15:31.919Z,37.87
2023-03-05T14:20:28.633Z,39.97
2023-03-05T14:25:33.980Z,39.13
2023-03-05T14:30:31.011Z,46.00
2023-03-05T14:35:26.833Z,37.05
2023-03-05T14:40:27.017Z,45.78
2023-03-05T14:45:23.830Z,43.72
2023-03-05T14:50:18.599Z,38.65
2023-03-05T14:55:19.140Z,40.13
2023-03-05T15:05:11.950Z,39.65
2023-03-05T15:10:06.470Z,36.33
2023-03-05T15:14:59.897Z,36.88
2023-03-05T15:19:55.151Z,34.08
2023-03-05T15:24:49.874Z,34.88
2023-03-05T15:29:43.082Z,38.90
2023-03-05T15:34:36.567Z,36.08
2023-03-05T15:39:30.068Z,43.50
2023-03-05T15:44:25.473Z,43.97
2023-03-05T15:49:19.298Z,44.00
2023-03-05T15:54:12.852Z,51.85
2023-03-05T15:59:06.375Z,52.60
2023-03-05T16:04:01.087Z,48.97
2023-03-05T16:09:03.103Z,49.05
2023-03-05T16:14:37.992Z,44.70
2023-03-05T16:19:42.781Z,50.15
2023-03-05T16:25:01.181Z,54.83
2023-03-05T16:30:11.402Z,61.33
2023-03-05T16:41:11.248Z,71.00
2023-03-05T16:46:13.996Z,86.47
2023-03-05T16:52:17.720Z,93.70
2023-03-05T17:03:31.799Z,143.38
2023-03-05T17:08:30.714Z,114.70
2023-03-05T17:13:25.688Z,134.68
2023-03-05T17:19:28.725Z,131.82
2023-03-05T17:31:40.013Z,124.20
2023-03-05T17:49:17.244Z,179.30
2023-03-05T17:59:13.552Z,125.72
2023-03-05T18:04:29.022Z,66.85
2023-03-05T18:16:43.477Z,61.55
2023-03-05T18:34:18.179Z,24.05
2023-03-05T18:39:25.514Z,23.38
2023-03-05T18:50:18.039Z,22.55
2023-03-05T18:55:28.440Z,31.70
2023-03-05T19:00:31.911Z,23.23
2023-03-05T19:06:02.333Z,25.10
2023-03-05T19:12:17.634Z,27.20
2023-03-05T19:17:34.992Z,23.37
2023-03-05T19:22:32.858Z,24.60
2023-03-05T19:27:30.550Z,20.83
2023-03-05T19:37:33.320Z,19.67
2023-03-05T19:42:28.780Z,22.20
2023-03-05T19:47:49.828Z,17.27
2023-03-05T19:52:47.522Z,20.07
2023-03-05T19:57:42.525Z,22.43
2023-03-05T20:02:38.658Z,21.53
2023-03-05T20:07:37.048Z,23.93
2023-03-05T20:12:30.749Z,18.07
2023-03-05T20:17:28.608Z,23.40
2023-03-05T20:22:23.203Z,19.33
2023-03-05T20:27:20.252Z,20.87
2023-03-05T20:32:15.236Z,18.67
2023-03-05T20:37:10.008Z,17.37
2023-03-05T20:42:07.625Z,19.83
2023-03-05T20:47:44.782Z,18.73
2023-03-05T20:52:46.017Z,19.27
2023-03-05T20:58:16.424Z,19.37
2023-03-05T21:10:27.201Z,19.47
2023-03-05T21:40:12.503Z,15.93
2023-03-05T21:45:40.635Z,16.07
2023-03-05T21:51:10.774Z,15.70
2023-03-05T21:57:19.257Z,15.07
2023-03-05T22:03:16.610Z,16.20
2023-03-05T22:08:36.536Z,15.13
2023-03-05T22:14:06.030Z,16.57
2023-03-05T22:25:46.759Z,16.53
2023-03-05T22:32:05.307Z,16.77
2023-03-05T22:37:56.775Z,20.03
2023-03-05T22:44:37.436Z,18.33
2023-03-05T23:22:13.033Z,13.30
2023-03-05T23:48:15.769Z,14.20
